Portada
METAR-TAF:

METAR-TAF

Aeroports :

Base aèria

Tafraoui, Algèria

latitud: 35-32-33N, longitud: 000-31-56W, altitud: 112 m

Observació

L'informe es va fer fa 1 hora i 2 minuts, a les 04:00 UTC
Vent 26 kt del Oest
Temperatura 12°C
Humitat 94%
Pressió 1015 hPa
Visibilitat: 8000 m
Escasses núvols a una alçada de 1600 ft
Núvols disperses a una alçada de 3000 ft

METAR: DAOL 140400Z 27026KT 8000 FEW016 SCT030 12/11 Q1015

Hora: 06:02 (05:02 UTC)


TAF: manca

Observacions i pronòstics meteorològics de més de 4000 aeroports (METAR i TAF).

Les estacions disponibles són els punts grocs i vermells al mapa.

Posi el ratolí al punt desitjat per veure el nom de l'estació.

Feu clic per veure les observacions i els pronòstics meteorològics.

Per canviar el mapa: feu clic els botons verds amb una creu de color negre per apropar; al botó verd amb un guió per allunyar la imatge; o en les fletxes verdes per a mapes adjacents.


METAR-TAF: